sensor_id;sensor_type;location;lat;lon;timestamp;P1;durP1;ratioP1;P2;durP2;ratioP2
28766;SDS011;15921;52.034;20.650;2024-01-11T00:01:46;125.70;;;42.38;;
28766;SDS011;15921;52.034;20.650;2024-01-11T00:04:12;120.88;;;40.47;;
28766;SDS011;15921;52.034;20.650;2024-01-11T00:06:44;130.23;;;43.08;;
28766;SDS011;15921;52.034;20.650;2024-01-11T00:09:10;129.43;;;44.30;;
28766;SDS011;15921;52.034;20.650;2024-01-11T00:11:36;126.60;;;43.28;;
28766;SDS011;15921;52.034;20.650;2024-01-11T00:14:02;117.60;;;39.55;;
28766;SDS011;15921;52.034;20.650;2024-01-11T00:16:28;129.65;;;41.65;;
28766;SDS011;15921;52.034;20.650;2024-01-11T00:18:53;125.03;;;39.95;;
28766;SDS011;15921;52.034;20.650;2024-01-11T00:21:19;110.60;;;38.05;;
28766;SDS011;15921;52.034;20.650;2024-01-11T00:23:45;125.95;;;41.60;;
28766;SDS011;15921;52.034;20.650;2024-01-11T00:26:13;123.88;;;41.25;;
28766;SDS011;15921;52.034;20.650;2024-01-11T00:28:39;131.85;;;40.25;;
28766;SDS011;15921;52.034;20.650;2024-01-11T00:31:05;125.13;;;39.45;;
28766;SDS011;15921;52.034;20.650;2024-01-11T00:33:31;120.80;;;37.92;;
28766;SDS011;15921;52.034;20.650;2024-01-11T00:35:56;118.88;;;38.50;;
28766;SDS011;15921;52.034;20.650;2024-01-11T00:38:23;116.00;;;38.80;;
28766;SDS011;15921;52.034;20.650;2024-01-11T00:40:49;104.38;;;37.45;;
28766;SDS011;15921;52.034;20.650;2024-01-11T00:43:14;107.47;;;38.67;;
28766;SDS011;15921;52.034;20.650;2024-01-11T00:45:40;121.90;;;37.63;;
28766;SDS011;15921;52.034;20.650;2024-01-11T00:48:06;99.10;;;37.15;;
28766;SDS011;15921;52.034;20.650;2024-01-11T00:50:31;119.28;;;39.92;;
28766;SDS011;15921;52.034;20.650;2024-01-11T00:52:57;123.80;;;38.72;;
28766;SDS011;15921;52.034;20.650;2024-01-11T00:55:23;119.18;;;38.42;;
28766;SDS011;15921;52.034;20.650;2024-01-11T00:57:49;111.28;;;36.97;;
28766;SDS011;15921;52.034;20.650;2024-01-11T01:00:15;112.72;;;37.50;;
28766;SDS011;15921;52.034;20.650;2024-01-11T01:02:41;117.55;;;38.35;;
28766;SDS011;15921;52.034;20.650;2024-01-11T01:05:08;107.25;;;36.50;;
28766;SDS011;15921;52.034;20.650;2024-01-11T01:07:33;104.78;;;36.10;;
28766;SDS011;15921;52.034;20.650;2024-01-11T01:09:59;118.15;;;37.45;;
28766;SDS011;15921;52.034;20.650;2024-01-11T01:12:25;110.95;;;36.78;;
28766;SDS011;15921;52.034;20.650;2024-01-11T01:14:51;112.78;;;37.42;;
28766;SDS011;15921;52.034;20.650;2024-01-11T01:17:17;111.00;;;37.45;;
28766;SDS011;15921;52.034;20.650;2024-01-11T01:19:43;110.22;;;39.03;;
28766;SDS011;15921;52.034;20.650;2024-01-11T01:22:09;109.43;;;37.78;;
28766;SDS011;15921;52.034;20.650;2024-01-11T01:24:35;119.28;;;38.80;;
28766;SDS011;15921;52.034;20.650;2024-01-11T01:27:01;114.20;;;36.80;;
28766;SDS011;15921;52.034;20.650;2024-01-11T01:29:26;109.78;;;36.53;;
28766;SDS011;15921;52.034;20.650;2024-01-11T01:31:52;107.28;;;35.58;;
28766;SDS011;15921;52.034;20.650;2024-01-11T01:34:18;109.43;;;36.05;;
28766;SDS011;15921;52.034;20.650;2024-01-11T01:36:44;113.47;;;36.15;;
28766;SDS011;15921;52.034;20.650;2024-01-11T01:39:10;101.20;;;35.78;;
28766;SDS011;15921;52.034;20.650;2024-01-11T01:41:36;106.85;;;36.13;;
28766;SDS011;15921;52.034;20.650;2024-01-11T01:44:01;101.15;;;32.97;;
28766;SDS011;15921;52.034;20.650;2024-01-11T01:46:27;108.82;;;36.30;;
28766;SDS011;15921;52.034;20.650;2024-01-11T01:48:54;99.88;;;34.15;;
28766;SDS011;15921;52.034;20.650;2024-01-11T01:51:22;90.60;;;32.97;;
28766;SDS011;15921;52.034;20.650;2024-01-11T01:53:50;113.57;;;36.50;;
28766;SDS011;15921;52.034;20.650;2024-01-11T01:56:19;108.78;;;37.00;;
28766;SDS011;15921;52.034;20.650;2024-01-11T01:58:46;109.45;;;33.65;;
28766;SDS011;15921;52.034;20.650;2024-01-11T02:01:12;101.45;;;33.78;;
28766;SDS011;15921;52.034;20.650;2024-01-11T02:03:40;105.25;;;34.90;;
28766;SDS011;15921;52.034;20.650;2024-01-11T02:06:06;91.78;;;33.95;;
28766;SDS011;15921;52.034;20.650;2024-01-11T02:08:32;90.65;;;33.05;;
28766;SDS011;15921;52.034;20.650;2024-01-11T02:10:59;112.40;;;35.55;;
28766;SDS011;15921;52.034;20.650;2024-01-11T02:13:26;108.00;;;32.97;;
28766;SDS011;15921;52.034;20.650;2024-01-11T02:15:51;88.88;;;30.52;;
28766;SDS011;15921;52.034;20.650;2024-01-11T02:18:17;104.22;;;33.08;;
28766;SDS011;15921;52.034;20.650;2024-01-11T02:20:43;96.65;;;33.50;;
28766;SDS011;15921;52.034;20.650;2024-01-11T02:23:11;92.32;;;32.85;;
28766;SDS011;15921;52.034;20.650;2024-01-11T02:25:42;91.70;;;32.40;;
28766;SDS011;15921;52.034;20.650;2024-01-11T02:28:07;90.35;;;32.03;;
28766;SDS011;15921;52.034;20.650;2024-01-11T02:30:33;89.85;;;30.77;;
28766;SDS011;15921;52.034;20.650;2024-01-11T02:32:59;102.15;;;33.25;;
28766;SDS011;15921;52.034;20.650;2024-01-11T02:35:26;95.20;;;32.60;;
28766;SDS011;15921;52.034;20.650;2024-01-11T02:37:52;99.72;;;32.42;;
28766;SDS011;15921;52.034;20.650;2024-01-11T02:40:19;99.85;;;31.45;;
28766;SDS011;15921;52.034;20.650;2024-01-11T02:42:45;100.82;;;31.92;;
28766;SDS011;15921;52.034;20.650;2024-01-11T02:45:11;92.45;;;31.73;;
28766;SDS011;15921;52.034;20.650;2024-01-11T02:47:39;104.28;;;32.80;;
28766;SDS011;15921;52.034;20.650;2024-01-11T02:50:08;91.50;;;32.50;;
28766;SDS011;15921;52.034;20.650;2024-01-11T02:52:34;99.90;;;32.00;;
28766;SDS011;15921;52.034;20.650;2024-01-11T02:55:00;97.40;;;32.22;;
28766;SDS011;15921;52.034;20.650;2024-01-11T02:57:25;104.13;;;34.47;;
28766;SDS011;15921;52.034;20.650;2024-01-11T02:59:51;97.43;;;33.45;;
28766;SDS011;15921;52.034;20.650;2024-01-11T03:02:17;103.30;;;35.95;;
28766;SDS011;15921;52.034;20.650;2024-01-11T03:04:42;100.60;;;36.83;;
28766;SDS011;15921;52.034;20.650;2024-01-11T03:07:08;106.93;;;35.03;;
28766;SDS011;15921;52.034;20.650;2024-01-11T03:09:34;103.70;;;35.97;;
28766;SDS011;15921;52.034;20.650;2024-01-11T03:12:00;108.45;;;36.53;;
28766;SDS011;15921;52.034;20.650;2024-01-11T03:14:25;119.05;;;36.92;;
28766;SDS011;15921;52.034;20.650;2024-01-11T03:16:51;109.70;;;37.00;;
28766;SDS011;15921;52.034;20.650;2024-01-11T03:19:17;110.80;;;38.47;;
28766;SDS011;15921;52.034;20.650;2024-01-11T03:21:45;112.13;;;39.38;;
28766;SDS011;15921;52.034;20.650;2024-01-11T03:24:11;117.50;;;39.00;;
28766;SDS011;15921;52.034;20.650;2024-01-11T03:26:38;124.43;;;41.40;;
28766;SDS011;15921;52.034;20.650;2024-01-11T03:29:04;122.20;;;41.70;;
28766;SDS011;15921;52.034;20.650;2024-01-11T03:31:30;117.47;;;40.00;;
28766;SDS011;15921;52.034;20.650;2024-01-11T03:33:56;129.27;;;44.10;;
28766;SDS011;15921;52.034;20.650;2024-01-11T03:36:25;126.10;;;46.10;;
28766;SDS011;15921;52.034;20.650;2024-01-11T03:38:51;130.50;;;46.70;;
28766;SDS011;15921;52.034;20.650;2024-01-11T03:41:16;131.73;;;43.67;;
28766;SDS011;15921;52.034;20.650;2024-01-11T03:43:42;126.93;;;43.40;;
28766;SDS011;15921;52.034;20.650;2024-01-11T03:46:07;132.52;;;45.08;;
28766;SDS011;15921;52.034;20.650;2024-01-11T03:48:33;134.18;;;43.80;;
28766;SDS011;15921;52.034;20.650;2024-01-11T03:51:01;138.32;;;43.78;;
28766;SDS011;15921;52.034;20.650;2024-01-11T03:53:26;128.77;;;43.22;;
28766;SDS011;15921;52.034;20.650;2024-01-11T03:55:53;129.25;;;44.85;;
28766;SDS011;15921;52.034;20.650;2024-01-11T03:58:19;139.68;;;44.70;;
28766;SDS011;15921;52.034;20.650;2024-01-11T04:00:44;131.85;;;44.05;;
28766;SDS011;15921;52.034;20.650;2024-01-11T04:03:10;124.50;;;42.28;;
28766;SDS011;15921;52.034;20.650;2024-01-11T04:05:36;132.15;;;45.80;;
28766;SDS011;15921;52.034;20.650;2024-01-11T04:08:05;131.60;;;43.50;;
28766;SDS011;15921;52.034;20.650;2024-01-11T04:10:31;124.95;;;43.90;;
28766;SDS011;15921;52.034;20.650;2024-01-11T04:12:57;127.00;;;41.97;;
28766;SDS011;15921;52.034;20.650;2024-01-11T04:15:23;133.38;;;45.72;;
28766;SDS011;15921;52.034;20.650;2024-01-11T04:17:48;137.85;;;44.17;;
28766;SDS011;15921;52.034;20.650;2024-01-11T04:20:14;135.23;;;45.80;;
28766;SDS011;15921;52.034;20.650;2024-01-11T04:22:40;128.38;;;44.30;;
28766;SDS011;15921;52.034;20.650;2024-01-11T04:25:05;129.68;;;43.10;;
28766;SDS011;15921;52.034;20.650;2024-01-11T04:27:32;126.78;;;46.20;;
28766;SDS011;15921;52.034;20.650;2024-01-11T04:29:57;120.03;;;41.03;;
28766;SDS011;15921;52.034;20.650;2024-01-11T04:32:23;125.60;;;42.72;;
28766;SDS011;15921;52.034;20.650;2024-01-11T04:34:49;129.95;;;43.70;;
28766;SDS011;15921;52.034;20.650;2024-01-11T04:37:14;127.45;;;42.55;;
28766;SDS011;15921;52.034;20.650;2024-01-11T04:39:40;127.47;;;42.45;;
28766;SDS011;15921;52.034;20.650;2024-01-11T04:42:06;127.93;;;42.90;;
28766;SDS011;15921;52.034;20.650;2024-01-11T04:44:31;125.35;;;36.17;;
28766;SDS011;15921;52.034;20.650;2024-01-11T04:46:57;110.45;;;37.70;;
28766;SDS011;15921;52.034;20.650;2024-01-11T04:49:23;125.53;;;39.05;;
28766;SDS011;15921;52.034;20.650;2024-01-11T04:51:48;116.25;;;40.10;;
28766;SDS011;15921;52.034;20.650;2024-01-11T04:54:14;117.97;;;40.55;;
28766;SDS011;15921;52.034;20.650;2024-01-11T04:56:40;113.35;;;38.95;;
28766;SDS011;15921;52.034;20.650;2024-01-11T04:59:05;117.78;;;37.53;;
28766;SDS011;15921;52.034;20.650;2024-01-11T05:01:31;104.90;;;37.10;;
28766;SDS011;15921;52.034;20.650;2024-01-11T05:03:56;102.10;;;36.10;;
28766;SDS011;15921;52.034;20.650;2024-01-11T05:06:22;99.68;;;34.42;;
28766;SDS011;15921;52.034;20.650;2024-01-11T05:08:49;107.22;;;36.65;;
28766;SDS011;15921;52.034;20.650;2024-01-11T05:11:17;108.95;;;36.92;;
28766;SDS011;15921;52.034;20.650;2024-01-11T05:13:44;95.00;;;33.53;;
28766;SDS011;15921;52.034;20.650;2024-01-11T05:18:51;101.53;;;33.42;;
28766;SDS011;15921;52.034;20.650;2024-01-11T05:21:18;96.07;;;32.67;;
28766;SDS011;15921;52.034;20.650;2024-01-11T05:23:45;100.45;;;33.97;;
28766;SDS011;15921;52.034;20.650;2024-01-11T05:26:11;105.18;;;34.80;;
28766;SDS011;15921;52.034;20.650;2024-01-11T05:28:37;92.93;;;34.53;;
28766;SDS011;15921;52.034;20.650;2024-01-11T05:31:10;100.28;;;34.05;;
28766;SDS011;15921;52.034;20.650;2024-01-11T05:33:38;95.05;;;32.75;;
28766;SDS011;15921;52.034;20.650;2024-01-11T05:36:04;108.90;;;35.00;;
28766;SDS011;15921;52.034;20.650;2024-01-11T05:38:30;107.30;;;35.00;;
28766;SDS011;15921;52.034;20.650;2024-01-11T05:40:55;103.13;;;32.20;;
28766;SDS011;15921;52.034;20.650;2024-01-11T05:43:24;100.90;;;34.17;;
28766;SDS011;15921;52.034;20.650;2024-01-11T05:45:50;109.13;;;33.05;;
28766;SDS011;15921;52.034;20.650;2024-01-11T05:48:16;105.95;;;34.60;;
28766;SDS011;15921;52.034;20.650;2024-01-11T05:50:45;103.55;;;33.25;;
28766;SDS011;15921;52.034;20.650;2024-01-11T05:53:11;93.50;;;32.15;;
28766;SDS011;15921;52.034;20.650;2024-01-11T05:55:38;91.80;;;30.95;;
28766;SDS011;15921;52.034;20.650;2024-01-11T05:58:04;105.38;;;32.70;;
28766;SDS011;15921;52.034;20.650;2024-01-11T06:00:29;105.63;;;32.80;;
28766;SDS011;15921;52.034;20.650;2024-01-11T06:02:55;102.90;;;32.95;;
28766;SDS011;15921;52.034;20.650;2024-01-11T06:05:21;101.55;;;34.38;;
28766;SDS011;15921;52.034;20.650;2024-01-11T06:07:47;96.70;;;31.92;;
28766;SDS011;15921;52.034;20.650;2024-01-11T06:10:12;88.57;;;30.45;;
28766;SDS011;15921;52.034;20.650;2024-01-11T06:12:39;88.32;;;30.20;;
28766;SDS011;15921;52.034;20.650;2024-01-11T06:15:06;87.47;;;29.45;;
28766;SDS011;15921;52.034;20.650;2024-01-11T06:17:32;87.75;;;28.50;;
28766;SDS011;15921;52.034;20.650;2024-01-11T06:19:58;93.68;;;29.88;;
28766;SDS011;15921;52.034;20.650;2024-01-11T06:22:24;77.47;;;27.23;;
28766;SDS011;15921;52.034;20.650;2024-01-11T06:24:50;83.88;;;27.80;;
28766;SDS011;15921;52.034;20.650;2024-01-11T06:27:15;78.35;;;27.25;;
28766;SDS011;15921;52.034;20.650;2024-01-11T06:29:41;79.63;;;27.13;;
28766;SDS011;15921;52.034;20.650;2024-01-11T06:32:07;77.10;;;26.63;;
28766;SDS011;15921;52.034;20.650;2024-01-11T06:34:32;73.72;;;25.08;;
28766;SDS011;15921;52.034;20.650;2024-01-11T06:37:00;79.10;;;26.33;;
28766;SDS011;15921;52.034;20.650;2024-01-11T06:39:27;74.05;;;25.50;;
28766;SDS011;15921;52.034;20.650;2024-01-11T06:41:54;71.03;;;25.23;;
28766;SDS011;15921;52.034;20.650;2024-01-11T06:44:20;76.95;;;25.05;;
28766;SDS011;15921;52.034;20.650;2024-01-11T06:46:46;76.80;;;23.70;;
28766;SDS011;15921;52.034;20.650;2024-01-11T06:49:11;72.80;;;25.08;;
28766;SDS011;15921;52.034;20.650;2024-01-11T06:51:37;70.72;;;24.10;;
28766;SDS011;15921;52.034;20.650;2024-01-11T06:54:04;75.40;;;25.75;;
28766;SDS011;15921;52.034;20.650;2024-01-11T06:56:30;74.07;;;23.60;;
28766;SDS011;15921;52.034;20.650;2024-01-11T06:58:56;81.13;;;25.42;;
28766;SDS011;15921;52.034;20.650;2024-01-11T07:01:22;76.30;;;26.05;;
28766;SDS011;15921;52.034;20.650;2024-01-11T07:03:48;76.80;;;24.65;;
28766;SDS011;15921;52.034;20.650;2024-01-11T07:06:15;73.40;;;25.75;;
28766;SDS011;15921;52.034;20.650;2024-01-11T07:08:40;76.88;;;25.88;;
28766;SDS011;15921;52.034;20.650;2024-01-11T07:11:06;81.35;;;25.38;;
28766;SDS011;15921;52.034;20.650;2024-01-11T07:13:32;81.57;;;25.75;;
28766;SDS011;15921;52.034;20.650;2024-01-11T07:15:58;83.00;;;27.42;;
28766;SDS011;15921;52.034;20.650;2024-01-11T07:18:25;83.95;;;26.38;;
28766;SDS011;15921;52.034;20.650;2024-01-11T07:20:51;86.57;;;25.05;;
28766;SDS011;15921;52.034;20.650;2024-01-11T07:23:26;89.63;;;26.95;;
28766;SDS011;15921;52.034;20.650;2024-01-11T07:25:52;91.95;;;27.80;;
28766;SDS011;15921;52.034;20.650;2024-01-11T07:28:18;80.47;;;25.75;;
28766;SDS011;15921;52.034;20.650;2024-01-11T07:30:44;86.25;;;26.88;;
28766;SDS011;15921;52.034;20.650;2024-01-11T07:33:11;83.05;;;23.95;;
28766;SDS011;15921;52.034;20.650;2024-01-11T07:35:37;91.30;;;27.98;;
28766;SDS011;15921;52.034;20.650;2024-01-11T07:38:03;82.25;;;25.95;;
28766;SDS011;15921;52.034;20.650;2024-01-11T07:40:29;86.70;;;25.00;;
28766;SDS011;15921;52.034;20.650;2024-01-11T07:42:55;79.35;;;24.83;;
28766;SDS011;15921;52.034;20.650;2024-01-11T07:45:20;88.93;;;25.35;;
28766;SDS011;15921;52.034;20.650;2024-01-11T07:47:46;81.30;;;26.35;;
28766;SDS011;15921;52.034;20.650;2024-01-11T07:50:12;92.68;;;24.38;;
28766;SDS011;15921;52.034;20.650;2024-01-11T07:52:38;88.18;;;23.85;;
28766;SDS011;15921;52.034;20.650;2024-01-11T07:55:07;87.18;;;25.75;;
28766;SDS011;15921;52.034;20.650;2024-01-11T07:57:35;80.80;;;24.05;;
28766;SDS011;15921;52.034;20.650;2024-01-11T08:00:01;73.72;;;24.60;;
28766;SDS011;15921;52.034;20.650;2024-01-11T08:02:28;88.97;;;26.23;;
28766;SDS011;15921;52.034;20.650;2024-01-11T08:04:54;77.88;;;26.48;;
28766;SDS011;15921;52.034;20.650;2024-01-11T08:07:20;98.45;;;25.77;;
28766;SDS011;15921;52.034;20.650;2024-01-11T08:09:46;81.57;;;24.15;;
28766;SDS011;15921;52.034;20.650;2024-01-11T08:12:13;92.00;;;26.08;;
28766;SDS011;15921;52.034;20.650;2024-01-11T08:14:41;88.85;;;25.88;;
28766;SDS011;15921;52.034;20.650;2024-01-11T08:17:07;88.78;;;24.85;;
28766;SDS011;15921;52.034;20.650;2024-01-11T08:19:33;98.75;;;25.08;;
28766;SDS011;15921;52.034;20.650;2024-01-11T08:21:59;85.63;;;25.70;;
28766;SDS011;15921;52.034;20.650;2024-01-11T08:24:25;82.47;;;24.58;;
28766;SDS011;15921;52.034;20.650;2024-01-11T08:26:51;87.20;;;24.67;;
28766;SDS011;15921;52.034;20.650;2024-01-11T08:29:17;74.03;;;22.65;;
28766;SDS011;15921;52.034;20.650;2024-01-11T08:31:46;94.93;;;24.15;;
28766;SDS011;15921;52.034;20.650;2024-01-11T08:34:11;88.32;;;23.55;;
28766;SDS011;15921;52.034;20.650;2024-01-11T08:36:37;92.65;;;22.92;;
28766;SDS011;15921;52.034;20.650;2024-01-11T08:39:04;73.93;;;23.02;;
28766;SDS011;15921;52.034;20.650;2024-01-11T08:41:36;89.35;;;23.05;;
28766;SDS011;15921;52.034;20.650;2024-01-11T08:44:05;95.75;;;21.75;;
28766;SDS011;15921;52.034;20.650;2024-01-11T08:46:31;97.32;;;23.13;;
28766;SDS011;15921;52.034;20.650;2024-01-11T08:48:58;74.32;;;22.98;;
28766;SDS011;15921;52.034;20.650;2024-01-11T08:51:30;81.80;;;23.60;;
28766;SDS011;15921;52.034;20.650;2024-01-11T08:53:57;84.55;;;21.23;;
28766;SDS011;15921;52.034;20.650;2024-01-11T08:56:23;82.05;;;23.08;;
28766;SDS011;15921;52.034;20.650;2024-01-11T08:58:49;80.20;;;23.40;;
28766;SDS011;15921;52.034;20.650;2024-01-11T09:01:15;69.00;;;23.20;;
28766;SDS011;15921;52.034;20.650;2024-01-11T09:03:41;96.05;;;23.08;;
28766;SDS011;15921;52.034;20.650;2024-01-11T09:06:07;83.20;;;23.15;;
28766;SDS011;15921;52.034;20.650;2024-01-11T09:08:33;78.05;;;22.77;;
28766;SDS011;15921;52.034;20.650;2024-01-11T09:10:59;95.78;;;25.05;;
28766;SDS011;15921;52.034;20.650;2024-01-11T09:13:25;74.15;;;21.20;;
28766;SDS011;15921;52.034;20.650;2024-01-11T09:15:51;76.90;;;21.10;;
28766;SDS011;15921;52.034;20.650;2024-01-11T09:18:17;67.60;;;21.67;;
28766;SDS011;15921;52.034;20.650;2024-01-11T09:20:43;68.45;;;21.42;;
28766;SDS011;15921;52.034;20.650;2024-01-11T09:23:09;75.00;;;22.17;;
28766;SDS011;15921;52.034;20.650;2024-01-11T09:25:35;69.90;;;23.60;;
28766;SDS011;15921;52.034;20.650;2024-01-11T09:28:00;72.40;;;22.25;;
28766;SDS011;15921;52.034;20.650;2024-01-11T09:30:26;69.25;;;21.35;;
28766;SDS011;15921;52.034;20.650;2024-01-11T09:32:52;71.53;;;20.65;;
28766;SDS011;15921;52.034;20.650;2024-01-11T09:35:18;68.00;;;22.27;;
28766;SDS011;15921;52.034;20.650;2024-01-11T09:37:43;77.32;;;20.73;;
28766;SDS011;15921;52.034;20.650;2024-01-11T09:40:11;64.22;;;20.52;;
28766;SDS011;15921;52.034;20.650;2024-01-11T09:42:37;70.93;;;22.63;;
28766;SDS011;15921;52.034;20.650;2024-01-11T09:45:07;66.55;;;20.75;;
28766;SDS011;15921;52.034;20.650;2024-01-11T09:47:37;60.20;;;19.15;;
28766;SDS011;15921;52.034;20.650;2024-01-11T09:50:05;67.85;;;21.00;;
28766;SDS011;15921;52.034;20.650;2024-01-11T09:52:32;66.78;;;20.92;;
28766;SDS011;15921;52.034;20.650;2024-01-11T09:55:01;64.85;;;22.20;;
28766;SDS011;15921;52.034;20.650;2024-01-11T09:57:30;53.03;;;18.33;;
28766;SDS011;15921;52.034;20.650;2024-01-11T09:59:58;54.67;;;18.80;;
28766;SDS011;15921;52.034;20.650;2024-01-11T10:02:24;53.92;;;18.38;;
28766;SDS011;15921;52.034;20.650;2024-01-11T10:04:53;50.20;;;17.58;;
28766;SDS011;15921;52.034;20.650;2024-01-11T10:07:21;63.22;;;19.35;;
28766;SDS011;15921;52.034;20.650;2024-01-11T10:09:48;49.03;;;17.25;;
28766;SDS011;15921;52.034;20.650;2024-01-11T10:12:15;50.08;;;18.10;;
28766;SDS011;15921;52.034;20.650;2024-01-11T10:14:42;51.30;;;19.50;;
28766;SDS011;15921;52.034;20.650;2024-01-11T10:17:07;54.90;;;17.55;;
28766;SDS011;15921;52.034;20.650;2024-01-11T10:19:33;48.70;;;17.73;;
28766;SDS011;15921;52.034;20.650;2024-01-11T10:21:59;50.17;;;17.52;;
28766;SDS011;15921;52.034;20.650;2024-01-11T10:24:25;55.53;;;16.13;;
28766;SDS011;15921;52.034;20.650;2024-01-11T10:27:00;50.67;;;16.70;;
28766;SDS011;15921;52.034;20.650;2024-01-11T10:29:32;45.13;;;16.13;;
28766;SDS011;15921;52.034;20.650;2024-01-11T10:31:58;56.67;;;18.27;;
28766;SDS011;15921;52.034;20.650;2024-01-11T10:34:24;48.85;;;17.23;;
28766;SDS011;15921;52.034;20.650;2024-01-11T10:36:50;48.67;;;16.35;;
28766;SDS011;15921;52.034;20.650;2024-01-11T10:39:17;52.00;;;16.63;;
28766;SDS011;15921;52.034;20.650;2024-01-11T10:41:46;44.28;;;17.27;;
28766;SDS011;15921;52.034;20.650;2024-01-11T10:44:19;48.30;;;16.55;;
28766;SDS011;15921;52.034;20.650;2024-01-11T10:46:49;46.67;;;16.58;;
28766;SDS011;15921;52.034;20.650;2024-01-11T10:49:16;53.00;;;16.63;;
28766;SDS011;15921;52.034;20.650;2024-01-11T10:51:53;50.40;;;17.92;;
28766;SDS011;15921;52.034;20.650;2024-01-11T10:54:24;55.92;;;19.58;;
28766;SDS011;15921;52.034;20.650;2024-01-11T10:56:51;49.53;;;17.45;;
28766;SDS011;15921;52.034;20.650;2024-01-11T10:59:19;58.92;;;21.02;;
28766;SDS011;15921;52.034;20.650;2024-01-11T11:01:50;51.92;;;18.05;;
28766;SDS011;15921;52.034;20.650;2024-01-11T11:04:21;55.72;;;18.63;;
28766;SDS011;15921;52.034;20.650;2024-01-11T11:06:50;58.17;;;17.95;;
28766;SDS011;15921;52.034;20.650;2024-01-11T11:09:20;53.03;;;18.20;;
28766;SDS011;15921;52.034;20.650;2024-01-11T11:11:47;58.28;;;19.10;;
28766;SDS011;15921;52.034;20.650;2024-01-11T11:14:14;54.67;;;19.58;;
28766;SDS011;15921;52.034;20.650;2024-01-11T11:16:40;51.90;;;17.65;;
28766;SDS011;15921;52.034;20.650;2024-01-11T11:19:07;55.25;;;18.33;;
28766;SDS011;15921;52.034;20.650;2024-01-11T11:21:41;65.97;;;18.58;;
28766;SDS011;15921;52.034;20.650;2024-01-11T11:24:07;61.33;;;21.33;;
28766;SDS011;15921;52.034;20.650;2024-01-11T11:26:34;69.72;;;20.45;;
28766;SDS011;15921;52.034;20.650;2024-01-11T11:29:00;62.83;;;21.27;;
28766;SDS011;15921;52.034;20.650;2024-01-11T11:31:35;77.35;;;21.60;;
28766;SDS011;15921;52.034;20.650;2024-01-11T11:34:05;69.65;;;21.73;;
28766;SDS011;15921;52.034;20.650;2024-01-11T11:36:32;69.20;;;22.30;;
28766;SDS011;15921;52.034;20.650;2024-01-11T11:38:59;68.88;;;21.80;;
28766;SDS011;15921;52.034;20.650;2024-01-11T11:41:26;80.45;;;22.27;;
28766;SDS011;15921;52.034;20.650;2024-01-11T11:43:52;77.10;;;21.65;;
28766;SDS011;15921;52.034;20.650;2024-01-11T11:46:21;71.97;;;21.35;;
28766;SDS011;15921;52.034;20.650;2024-01-11T11:51:14;80.47;;;22.23;;
28766;SDS011;15921;52.034;20.650;2024-01-11T11:53:41;82.03;;;24.33;;
28766;SDS011;15921;52.034;20.650;2024-01-11T11:56:08;79.95;;;24.40;;
28766;SDS011;15921;52.034;20.650;2024-01-11T11:58:37;79.32;;;24.17;;
28766;SDS011;15921;52.034;20.650;2024-01-11T12:01:06;85.22;;;24.50;;
28766;SDS011;15921;52.034;20.650;2024-01-11T12:03:33;89.65;;;25.42;;
28766;SDS011;15921;52.034;20.650;2024-01-11T12:06:09;89.75;;;25.05;;
28766;SDS011;15921;52.034;20.650;2024-01-11T12:08:37;93.28;;;23.65;;
28766;SDS011;15921;52.034;20.650;2024-01-11T12:11:06;94.88;;;25.00;;
28766;SDS011;15921;52.034;20.650;2024-01-11T12:13:33;85.03;;;24.48;;
28766;SDS011;15921;52.034;20.650;2024-01-11T12:15:59;78.20;;;23.75;;
28766;SDS011;15921;52.034;20.650;2024-01-11T12:18:25;109.07;;;25.20;;
28766;SDS011;15921;52.034;20.650;2024-01-11T12:20:50;77.85;;;25.08;;
28766;SDS011;15921;52.034;20.650;2024-01-11T12:23:18;95.18;;;25.48;;
28766;SDS011;15921;52.034;20.650;2024-01-11T12:25:44;86.10;;;25.40;;
28766;SDS011;15921;52.034;20.650;2024-01-11T12:28:10;125.85;;;26.55;;
28766;SDS011;15921;52.034;20.650;2024-01-11T12:30:36;96.68;;;25.90;;
28766;SDS011;15921;52.034;20.650;2024-01-11T12:33:03;89.38;;;26.05;;
28766;SDS011;15921;52.034;20.650;2024-01-11T12:35:30;92.38;;;27.02;;
28766;SDS011;15921;52.034;20.650;2024-01-11T12:37:59;96.20;;;25.63;;
28766;SDS011;15921;52.034;20.650;2024-01-11T12:40:33;87.15;;;23.42;;
28766;SDS011;15921;52.034;20.650;2024-01-11T12:43:03;82.45;;;25.88;;
28766;SDS011;15921;52.034;20.650;2024-01-11T12:45:29;72.85;;;24.33;;
28766;SDS011;15921;52.034;20.650;2024-01-11T12:47:58;83.65;;;26.45;;
28766;SDS011;15921;52.034;20.650;2024-01-11T12:50:25;69.47;;;24.20;;
28766;SDS011;15921;52.034;20.650;2024-01-11T12:53:30;85.00;;;26.00;;
28766;SDS011;15921;52.034;20.650;2024-01-11T12:56:01;86.43;;;25.37;;
28766;SDS011;15921;52.034;20.650;2024-01-11T12:58:35;75.07;;;23.30;;
28766;SDS011;15921;52.034;20.650;2024-01-11T13:01:03;81.05;;;23.58;;
28766;SDS011;15921;52.034;20.650;2024-01-11T13:03:29;83.82;;;24.80;;
28766;SDS011;15921;52.034;20.650;2024-01-11T13:05:56;81.03;;;25.45;;
28766;SDS011;15921;52.034;20.650;2024-01-11T13:08:22;87.57;;;25.48;;
28766;SDS011;15921;52.034;20.650;2024-01-11T13:10:49;89.57;;;26.95;;
28766;SDS011;15921;52.034;20.650;2024-01-11T13:13:14;90.88;;;26.15;;
28766;SDS011;15921;52.034;20.650;2024-01-11T13:15:40;94.30;;;26.77;;
28766;SDS011;15921;52.034;20.650;2024-01-11T13:18:06;90.05;;;26.42;;
28766;SDS011;15921;52.034;20.650;2024-01-11T13:20:32;119.10;;;29.75;;
28766;SDS011;15921;52.034;20.650;2024-01-11T13:23:16;95.40;;;28.17;;
28766;SDS011;15921;52.034;20.650;2024-01-11T13:25:47;92.75;;;26.77;;
28766;SDS011;15921;52.034;20.650;2024-01-11T13:28:14;94.05;;;28.55;;
28766;SDS011;15921;52.034;20.650;2024-01-11T13:30:41;101.28;;;29.40;;
28766;SDS011;15921;52.034;20.650;2024-01-11T13:33:08;104.28;;;28.55;;
28766;SDS011;15921;52.034;20.650;2024-01-11T13:35:38;100.40;;;29.13;;
28766;SDS011;15921;52.034;20.650;2024-01-11T13:38:05;95.22;;;29.50;;
28766;SDS011;15921;52.034;20.650;2024-01-11T13:40:31;106.78;;;30.15;;
28766;SDS011;15921;52.034;20.650;2024-01-11T13:42:58;113.15;;;32.03;;
28766;SDS011;15921;52.034;20.650;2024-01-11T13:45:24;103.05;;;29.67;;
28766;SDS011;15921;52.034;20.650;2024-01-11T13:47:50;102.63;;;30.10;;
28766;SDS011;15921;52.034;20.650;2024-01-11T13:50:19;98.53;;;30.25;;
28766;SDS011;15921;52.034;20.650;2024-01-11T13:52:45;110.50;;;30.98;;
28766;SDS011;15921;52.034;20.650;2024-01-11T13:55:12;103.22;;;30.25;;
28766;SDS011;15921;52.034;20.650;2024-01-11T13:57:38;108.03;;;30.63;;
28766;SDS011;15921;52.034;20.650;2024-01-11T14:00:05;106.80;;;29.35;;
28766;SDS011;15921;52.034;20.650;2024-01-11T14:02:31;94.95;;;29.38;;
28766;SDS011;15921;52.034;20.650;2024-01-11T14:04:58;101.05;;;30.90;;
28766;SDS011;15921;52.034;20.650;2024-01-11T14:07:24;101.80;;;30.55;;